Time;durP1;ratioP1;P1;durP2;ratioP2;P2;SDS_P1;SDS_P2;PMS_P1;PMS_P2;Temp;Humidity;BMP_temperature;BMP_pressure;BME280_temperature;BME280_humidity;BME280_pressure;Samples;Min_cycle;Max_cycle;Signal;HPM_P1;HPM_P2
2022/12/23 00:00:09;;;;;;;96.20;42.05;;;8.30;99.90;;;;;;5025162;28;20172;-79
2022/12/23 00:02:36;;;;;;;100.43;43.67;;;8.30;99.90;;;;;;5041643;28;20275;-78
2022/12/23 00:05:02;;;;;;;102.47;43.90;;;8.30;99.90;;;;;;5029952;28;20198;-77
2022/12/23 00:07:28;;;;;;;95.22;42.50;;;8.30;99.90;;;;;;5054804;28;20167;-78
2022/12/23 00:09:54;;;;;;;101.07;42.25;;;8.30;99.90;;;;;;5054893;28;20749;-78
2022/12/23 00:15:05;;;;;;;103.55;43.05;;;8.20;99.90;;;;;;5033983;28;20180;-78
2022/12/23 00:17:32;;;;;;;112.00;45.85;;;8.30;99.90;;;;;;5032748;28;20180;-79
2022/12/23 00:19:58;;;;;;;117.40;46.30;;;8.20;99.90;;;;;;5029102;28;20219;-78
2022/12/23 00:23:03;;;;;;;104.85;44.17;;;8.30;99.90;;;;;;5039093;28;20184;-78
2022/12/23 00:25:11;;;;;;;108.13;43.20;;;8.30;99.90;;;;;;5047718;28;20188;-78
2022/12/23 00:27:37;;;;;;;102.78;42.78;;;8.30;99.90;;;;;;5046902;28;20582;-77
2022/12/23 00:30:05;;;;;;;108.18;43.72;;;8.30;99.90;;;;;;5051326;28;20203;-77
2022/12/23 00:32:31;;;;;;;100.57;43.47;;;8.30;99.90;;;;;;5013640;28;20180;-78
2022/12/23 00:34:56;;;;;;;104.80;42.75;;;8.30;99.90;;;;;;5021884;28;20184;-78
2022/12/23 00:37:22;;;;;;;104.30;43.20;;;8.30;99.90;;;;;;5034415;28;20571;-78
2022/12/23 00:45:17;;;;;;;104.95;42.63;;;8.30;99.90;;;;;;5024795;28;20183;-77
2022/12/23 00:50:30;;;;;;;100.97;40.28;;;8.30;99.90;;;;;;5026355;28;20682;-83
2022/12/23 00:52:56;;;;;;;99.78;41.55;;;8.30;99.90;;;;;;5018046;28;20200;-78
2022/12/23 00:55:22;;;;;;;108.53;42.72;;;8.20;99.90;;;;;;5025145;28;20680;-77
2022/12/23 00:57:48;;;;;;;112.25;43.15;;;8.20;99.90;;;;;;5031619;28;20176;-83
2022/12/23 01:00:14;;;;;;;102.65;40.85;;;8.20;99.90;;;;;;5024244;28;20258;-77
2022/12/23 01:05:35;;;;;;;113.28;43.22;;;8.20;99.90;;;;;;5048162;28;20194;-77
2022/12/23 01:08:06;;;;;;;107.57;43.40;;;8.10;99.90;;;;;;5052750;28;20199;-77
2022/12/23 01:10:34;;;;;;;105.95;42.85;;;8.20;99.90;;;;;;5017178;28;20622;-77
2022/12/23 01:13:00;;;;;;;121.07;45.53;;;8.20;99.90;;;;;;5033997;28;20259;-76
2022/12/23 01:15:26;;;;;;;123.45;46.05;;;8.30;99.90;;;;;;5062042;28;20618;-76
2022/12/23 01:17:52;;;;;;;119.97;45.17;;;8.30;99.90;;;;;;5049386;28;20560;-77
2022/12/23 01:20:18;;;;;;;124.05;46.10;;;8.20;99.90;;;;;;5029323;28;20183;-77
2022/12/23 01:22:44;;;;;;;124.50;46.55;;;8.30;99.90;;;;;;5029733;28;20203;-77
2022/12/23 01:25:09;;;;;;;125.70;45.80;;;8.20;99.90;;;;;;5064726;28;20234;-77
2022/12/23 01:27:35;;;;;;;127.22;45.47;;;8.30;99.90;;;;;;5033850;28;20186;-77
2022/12/23 01:30:02;;;;;;;125.63;45.60;;;8.30;99.90;;;;;;5031080;28;20207;-77
2022/12/23 01:32:28;;;;;;;117.72;45.13;;;8.30;99.90;;;;;;5033910;28;20287;-78
2022/12/23 01:34:54;;;;;;;124.90;47.97;;;8.30;99.90;;;;;;5031517;28;20695;-77
2022/12/23 01:37:19;;;;;;;125.22;44.03;;;8.30;99.90;;;;;;5032629;28;20184;-77
2022/12/23 01:39:45;;;;;;;120.57;45.05;;;8.30;99.90;;;;;;5063253;28;20207;-77
2022/12/23 01:45:04;;;;;;;118.22;42.15;;;8.20;99.90;;;;;;5031350;28;20176;-77
2022/12/23 01:47:48;;;;;;;117.65;42.15;;;8.20;99.90;;;;;;5065222;28;20620;-77
2022/12/23 01:50:26;;;;;;;117.07;42.42;;;8.20;99.90;;;;;;5031610;28;20242;-81
2022/12/23 01:53:04;;;;;;;111.30;41.85;;;8.20;99.90;;;;;;5029150;28;20188;-77
2022/12/23 01:55:34;;;;;;;109.40;40.17;;;8.20;99.90;;;;;;5024000;28;20228;-77
2022/12/23 01:58:09;;;;;;;111.47;41.13;;;8.20;99.90;;;;;;5022974;28;20184;-77
2022/12/23 02:12:06;;;;;;;103.28;39.10;;;8.20;99.90;;;;;;5030315;28;20199;-79
2022/12/23 02:17:41;;;;;;;100.32;37.60;;;8.20;99.90;;;;;;5033004;28;20172;-78
2022/12/23 02:20:30;;;;;;;95.68;38.53;;;8.20;99.90;;;;;;5031085;28;20199;-77
2022/12/23 02:23:26;;;;;;;98.25;35.85;;;8.30;99.90;;;;;;5018860;28;20192;-77
2022/12/23 02:26:25;;;;;;;98.72;36.70;;;8.20;99.90;;;;;;5028307;28;20187;-79
2022/12/23 02:29:15;;;;;;;99.88;36.53;;;8.20;99.90;;;;;;5033281;28;20279;-77
2022/12/23 02:31:58;;;;;;;95.00;35.90;;;8.20;99.90;;;;;;5023475;28;20199;-83
2022/12/23 02:34:56;;;;;;;96.85;37.05;;;8.20;99.90;;;;;;5016764;28;20179;-77
2022/12/23 02:37:38;;;;;;;85.45;33.33;;;8.20;99.90;;;;;;5052472;28;20219;-77
2022/12/23 02:40:28;;;;;;;87.10;33.53;;;8.20;99.90;;;;;;5034348;28;20171;-77
2022/12/23 02:43:13;;;;;;;83.00;32.35;;;8.20;99.90;;;;;;5054096;28;20188;-78
2022/12/23 02:45:56;;;;;;;88.35;33.38;;;8.30;99.90;;;;;;5017889;28;20184;-78
2022/12/23 02:48:44;;;;;;;87.13;32.25;;;8.30;99.90;;;;;;5023802;28;20208;-78
2022/12/23 02:51:13;;;;;;;87.25;32.83;;;8.30;99.90;;;;;;5033241;28;20187;-78
2022/12/23 02:54:01;;;;;;;93.40;33.78;;;8.30;99.90;;;;;;5051962;28;20180;-78
2022/12/23 02:56:29;;;;;;;87.40;32.33;;;8.20;99.90;;;;;;5051331;28;20180;-77
2022/12/23 02:59:11;;;;;;;81.82;33.00;;;8.30;99.90;;;;;;5047160;28;20623;-78
2022/12/23 03:01:38;;;;;;;86.28;31.63;;;8.30;99.90;;;;;;5020473;28;20191;-78
2022/12/23 03:04:04;;;;;;;89.82;32.33;;;8.30;99.90;;;;;;5035233;28;20172;-79
2022/12/23 03:06:39;;;;;;;85.30;31.80;;;8.20;99.90;;;;;;5035702;28;20239;-78
2022/12/23 03:09:05;;;;;;;80.78;30.20;;;8.30;99.90;;;;;;5025001;28;20290;-78
2022/12/23 03:11:49;;;;;;;81.03;31.23;;;8.30;99.90;;;;;;5035297;28;20276;-78
2022/12/23 03:15:02;;;;;;;73.78;29.05;;;8.30;99.90;;;;;;5034294;28;20198;-78
2022/12/23 03:17:34;;;;;;;70.07;27.45;;;8.30;99.90;;;;;;5022819;28;20191;-78
2022/12/23 03:20:13;;;;;;;77.28;28.40;;;8.30;99.90;;;;;;5028761;28;20179;-78
2022/12/23 03:23:02;;;;;;;69.80;27.00;;;8.30;99.90;;;;;;5019472;28;20631;-78
2022/12/23 03:25:37;;;;;;;65.35;26.08;;;8.30;99.90;;;;;;5027776;28;20186;-77
2022/12/23 03:28:14;;;;;;;67.30;25.50;;;8.30;99.90;;;;;;5035984;28;20175;-77
2022/12/23 03:30:44;;;;;;;67.68;24.42;;;8.40;99.90;;;;;;5029528;28;20183;-77
2022/12/23 03:33:21;;;;;;;67.88;26.67;;;8.40;99.90;;;;;;5028943;28;20192;-77
2022/12/23 03:35:54;;;;;;;71.03;25.83;;;8.30;99.90;;;;;;5028691;28;20199;-77
2022/12/23 03:38:21;;;;;;;62.63;24.60;;;8.40;99.90;;;;;;5036063;28;20191;-77
2022/12/23 03:40:54;;;;;;;59.75;24.15;;;8.30;99.90;;;;;;5034198;28;20184;-81
2022/12/23 03:43:43;;;;;;;61.10;23.90;;;8.30;99.90;;;;;;5025579;28;20172;-78
2022/12/23 03:46:17;;;;;;;62.85;25.00;;;8.40;99.90;;;;;;5032604;28;20185;-78
2022/12/23 03:48:48;;;;;;;63.47;24.38;;;8.40;99.90;;;;;;5035307;28;20229;-77
2022/12/23 03:51:18;;;;;;;61.38;24.15;;;8.40;99.90;;;;;;5027740;28;20644;-77
2022/12/23 03:53:52;;;;;;;67.50;25.48;;;8.40;99.90;;;;;;5027056;28;20176;-78
2022/12/23 03:56:24;;;;;;;63.17;24.70;;;8.30;99.90;;;;;;5034415;28;20262;-77
2022/12/23 03:59:06;;;;;;;64.85;24.10;;;8.30;99.90;;;;;;5051066;28;20168;-77
2022/12/23 04:01:53;;;;;;;66.25;24.75;;;8.40;99.90;;;;;;5046669;28;20211;-78
2022/12/23 04:04:32;;;;;;;61.65;23.55;;;8.40;99.90;;;;;;5043392;28;22110;-81
2022/12/23 04:07:22;;;;;;;67.53;25.35;;;8.40;99.90;;;;;;5034969;28;20535;-78
2022/12/23 04:09:51;;;;;;;63.55;24.85;;;8.40;99.90;;;;;;5046660;28;20678;-77
2022/12/23 04:12:17;;;;;;;64.30;24.27;;;8.40;99.90;;;;;;5035303;28;20195;-79
2022/12/23 04:14:49;;;;;;;65.97;26.15;;;8.40;99.90;;;;;;5031951;28;20641;-77
2022/12/23 04:17:16;;;;;;;63.22;25.10;;;8.40;99.90;;;;;;5067458;28;20180;-77
2022/12/23 04:19:44;;;;;;;63.03;24.17;;;8.30;99.90;;;;;;5022873;28;20184;-79
2022/12/23 04:22:14;;;;;;;63.92;24.25;;;8.30;99.90;;;;;;5035053;28;20184;-77
2022/12/23 04:24:40;;;;;;;65.22;24.80;;;8.40;99.90;;;;;;5031315;28;20176;-78
2022/12/23 04:27:08;;;;;;;60.75;24.52;;;8.40;99.90;;;;;;5049716;28;20679;-78
2022/12/23 04:29:34;;;;;;;65.00;25.02;;;8.40;99.90;;;;;;5031407;28;20253;-77
2022/12/23 04:32:00;;;;;;;61.65;23.75;;;8.40;99.90;;;;;;5049863;28;20562;-77
2022/12/23 04:34:25;;;;;;;58.75;23.50;;;8.40;99.90;;;;;;5029115;28;20191;-79
2022/12/23 04:36:51;;;;;;;60.75;24.15;;;8.30;99.90;;;;;;5032456;28;20207;-78
2022/12/23 04:39:17;;;;;;;62.58;23.95;;;8.30;99.90;;;;;;5034232;28;20182;-77
2022/12/23 04:41:42;;;;;;;62.75;23.70;;;8.30;99.90;;;;;;5046646;28;20225;-77
2022/12/23 04:44:08;;;;;;;57.85;22.60;;;8.30;99.90;;;;;;5064475;28;20271;-79
2022/12/23 04:46:34;;;;;;;55.83;22.23;;;8.30;99.90;;;;;;5014946;28;20190;-77
2022/12/23 04:49:00;;;;;;;57.13;22.20;;;8.30;99.90;;;;;;5014384;28;20223;-78
2022/12/23 04:51:25;;;;;;;62.00;23.38;;;8.30;99.90;;;;;;5049328;28;20702;-77
2022/12/23 04:53:51;;;;;;;53.95;21.98;;;8.30;99.90;;;;;;5065820;28;20714;-76
2022/12/23 04:56:17;;;;;;;56.88;22.92;;;8.40;99.90;;;;;;5028320;28;21173;-75
2022/12/23 04:58:42;;;;;;;61.80;23.95;;;8.40;99.90;;;;;;5023828;28;20189;-75
2022/12/23 05:01:10;;;;;;;57.65;23.17;;;8.40;99.90;;;;;;5043064;28;20181;-75
2022/12/23 05:03:37;;;;;;;55.55;22.70;;;8.40;99.90;;;;;;5029750;28;20239;-76
2022/12/23 05:06:04;;;;;;;55.17;22.33;;;8.40;99.90;;;;;;5024805;28;20176;-78
2022/12/23 05:08:30;;;;;;;54.28;21.98;;;8.40;99.90;;;;;;5032655;28;20210;-76
2022/12/23 05:10:56;;;;;;;52.88;21.98;;;8.40;99.90;;;;;;5035833;28;20246;-76
2022/12/23 05:13:22;;;;;;;53.22;21.80;;;8.40;99.90;;;;;;5032677;28;20195;-76
2022/12/23 05:15:49;;;;;;;54.78;23.15;;;8.40;99.90;;;;;;5028695;28;20168;-76
2022/12/23 05:18:15;;;;;;;61.30;25.58;;;8.40;99.90;;;;;;5025862;28;20200;-75
2022/12/23 05:20:41;;;;;;;60.33;25.45;;;8.40;99.90;;;;;;5029377;28;20180;-76
2022/12/23 05:23:07;;;;;;;68.40;26.48;;;8.40;99.90;;;;;;5033734;28;20616;-75
2022/12/23 05:25:35;;;;;;;60.95;24.83;;;8.40;99.90;;;;;;5032461;28;20585;-78
2022/12/23 05:28:01;;;;;;;62.17;25.00;;;8.40;99.90;;;;;;5033523;28;20184;-77
2022/12/23 05:30:27;;;;;;;63.83;25.30;;;8.40;99.90;;;;;;5032496;28;20278;-77
2022/12/23 05:32:54;;;;;;;58.50;24.88;;;8.30;99.90;;;;;;5033856;28;20699;-77
2022/12/23 05:35:21;;;;;;;56.90;24.70;;;8.30;99.90;;;;;;5045033;28;20198;-78
2022/12/23 05:37:47;;;;;;;66.05;26.60;;;8.30;99.90;;;;;;5025459;28;20187;-79
2022/12/23 05:40:13;;;;;;;61.72;26.52;;;8.40;99.90;;;;;;5029774;28;20195;-78
2022/12/23 05:42:39;;;;;;;61.00;27.13;;;8.40;99.90;;;;;;5032115;28;20186;-77
2022/12/23 05:45:06;;;;;;;67.43;28.13;;;8.30;99.90;;;;;;5031814;28;20259;-79
2022/12/23 05:47:32;;;;;;;62.45;27.23;;;8.30;99.90;;;;;;5026311;28;20232;-83
2022/12/23 05:49:58;;;;;;;63.05;25.20;;;8.30;99.90;;;;;;5023803;28;20212;-77
2022/12/23 05:52:23;;;;;;;58.13;25.45;;;8.30;99.90;;;;;;5032067;28;20219;-74
2022/12/23 05:54:49;;;;;;;67.88;26.73;;;8.30;99.90;;;;;;5047096;28;20222;-75
2022/12/23 05:57:15;;;;;;;57.17;25.13;;;8.30;99.90;;;;;;5027209;28;20180;-78
2022/12/23 05:59:41;;;;;;;65.35;26.85;;;8.30;99.90;;;;;;5036416;28;20195;-75
2022/12/23 06:02:06;;;;;;;63.65;25.73;;;8.30;99.90;;;;;;5018488;28;20322;-75
2022/12/23 06:04:32;;;;;;;61.30;25.25;;;8.30;99.90;;;;;;5021752;28;20179;-79
2022/12/23 06:06:58;;;;;;;62.75;24.75;;;8.30;99.90;;;;;;5062698;28;20206;-75
2022/12/23 06:09:24;;;;;;;59.25;23.98;;;8.30;99.90;;;;;;5063160;28;20607;-75
2022/12/23 06:11:49;;;;;;;58.78;23.05;;;8.30;99.90;;;;;;5032739;28;20186;-78
2022/12/23 06:14:15;;;;;;;54.47;23.23;;;8.30;99.90;;;;;;5031135;28;20241;-78
2022/12/23 06:16:41;;;;;;;57.85;24.92;;;8.30;99.90;;;;;;5046565;28;20576;-77
2022/12/23 06:19:07;;;;;;;61.58;26.10;;;8.30;99.90;;;;;;5025773;28;20184;-75
2022/12/23 06:21:32;;;;;;;63.03;25.15;;;8.30;99.90;;;;;;5032581;28;20187;-76
2022/12/23 06:23:58;;;;;;;61.30;25.02;;;8.20;99.90;;;;;;5032261;28;20234;-85
2022/12/23 06:26:25;;;;;;;62.70;25.60;;;8.20;99.90;;;;;;5045680;28;20274;-75
2022/12/23 06:28:50;;;;;;;62.60;26.70;;;8.20;99.90;;;;;;5048147;28;20254;-75
2022/12/23 06:31:16;;;;;;;64.43;26.55;;;8.10;99.90;;;;;;5031114;28;20215;-76
2022/12/23 06:33:42;;;;;;;69.25;27.10;;;8.20;99.90;;;;;;5027601;28;20571;-75
2022/12/23 06:36:08;;;;;;;70.53;28.70;;;8.10;99.90;;;;;;5023090;28;20250;-77
2022/12/23 06:38:34;;;;;;;74.38;28.90;;;8.10;99.90;;;;;;5018310;28;20188;-75
2022/12/23 06:41:00;;;;;;;69.72;27.90;;;8.10;99.90;;;;;;5062680;28;20271;-78
2022/12/23 06:43:26;;;;;;;71.68;28.88;;;8.10;99.90;;;;;;5030608;28;20199;-77
2022/12/23 06:45:51;;;;;;;65.60;27.30;;;8.10;99.90;;;;;;5018909;28;20176;-80
2022/12/23 06:48:17;;;;;;;71.85;27.67;;;8.10;99.90;;;;;;5025151;28;20200;-77
2022/12/23 06:50:43;;;;;;;74.68;28.58;;;8.10;99.90;;;;;;5028673;28;20188;-77
2022/12/23 06:53:09;;;;;;;70.20;27.63;;;8.10;99.90;;;;;;5031342;28;20203;-82
2022/12/23 06:55:35;;;;;;;65.13;26.70;;;8.10;99.90;;;;;;5036648;28;20270;-77
2022/12/23 06:58:00;;;;;;;66.88;26.00;;;8.10;99.90;;;;;;5012607;28;20220;-79
2022/12/23 07:00:26;;;;;;;63.95;26.13;;;8.10;99.90;;;;;;5023946;28;20237;-78
2022/12/23 07:02:53;;;;;;;71.35;26.13;;;8.10;99.90;;;;;;5064201;28;20221;-78
2022/12/23 07:05:19;;;;;;;66.45;26.30;;;8.10;99.90;;;;;;5036894;28;20202;-77
2022/12/23 07:07:45;;;;;;;65.38;26.20;;;8.10;99.90;;;;;;5032765;28;20277;-78
2022/12/23 07:10:11;;;;;;;63.85;26.90;;;8.10;99.90;;;;;;5031225;28;20247;-77
2022/12/23 07:12:37;;;;;;;63.70;26.77;;;8.20;99.90;;;;;;5032028;28;20283;-77
2022/12/23 07:15:04;;;;;;;70.97;27.17;;;8.20;99.90;;;;;;5024880;28;20183;-78
2022/12/23 07:17:30;;;;;;;64.20;26.63;;;8.10;99.90;;;;;;5020805;28;20196;-77
2022/12/23 07:19:56;;;;;;;62.17;26.35;;;8.20;99.90;;;;;;5020222;28;20284;-78
2022/12/23 07:22:21;;;;;;;69.80;27.17;;;8.10;99.90;;;;;;5030599;28;20179;-77
2022/12/23 07:24:47;;;;;;;69.63;26.80;;;8.10;99.90;;;;;;5046258;28;20765;-77
2022/12/23 07:27:13;;;;;;;65.57;26.27;;;8.10;99.90;;;;;;5017466;28;20210;-77
2022/12/23 07:29:41;;;;;;;64.45;26.27;;;8.10;99.90;;;;;;5035168;28;20195;-78
2022/12/23 07:32:07;;;;;;;68.82;26.33;;;8.10;99.90;;;;;;5039724;28;20188;-79
2022/12/23 07:34:33;;;;;;;63.90;26.38;;;8.10;99.90;;;;;;5034943;28;20179;-78
2022/12/23 07:36:59;;;;;;;59.70;25.90;;;8.10;99.90;;;;;;5030453;28;20540;-79
2022/12/23 07:39:25;;;;;;;66.88;27.98;;;8.10;99.90;;;;;;5031088;28;20181;-78
2022/12/23 07:41:50;;;;;;;68.78;26.77;;;8.20;99.90;;;;;;5033734;28;20288;-78
2022/12/23 07:44:17;;;;;;;69.32;26.77;;;8.10;99.90;;;;;;5047853;28;20208;-79
2022/12/23 07:46:43;;;;;;;64.40;26.48;;;8.10;99.90;;;;;;5031669;28;20254;-80
2022/12/23 07:49:09;;;;;;;61.30;26.25;;;8.10;99.90;;;;;;5049607;28;20594;-79
2022/12/23 07:51:35;;;;;;;64.22;26.73;;;8.10;99.90;;;;;;5035112;28;20196;-77
2022/12/23 07:54:00;;;;;;;65.35;26.90;;;8.10;99.90;;;;;;5031890;28;20191;-83
2022/12/23 07:56:26;;;;;;;60.53;25.80;;;8.20;99.90;;;;;;5030701;28;20335;-78
2022/12/23 07:58:53;;;;;;;62.33;26.02;;;8.10;99.90;;;;;;5030984;28;20520;-78
2022/12/23 08:01:19;;;;;;;56.90;24.50;;;8.20;99.90;;;;;;5047984;28;20184;-77
2022/12/23 08:03:45;;;;;;;58.90;24.17;;;8.10;99.90;;;;;;5035471;28;20180;-78
2022/12/23 08:06:14;;;;;;;60.72;24.38;;;8.20;99.90;;;;;;5029568;28;20185;-78
2022/12/23 08:08:44;;;;;;;53.03;22.60;;;8.20;99.90;;;;;;5017153;28;20223;-78
2022/12/23 08:11:11;;;;;;;49.00;22.17;;;8.20;99.90;;;;;;5049499;28;20279;-78
2022/12/23 08:13:40;;;;;;;49.70;22.52;;;8.20;99.90;;;;;;5050067;28;20663;-79
2022/12/23 08:16:07;;;;;;;47.08;20.85;;;8.20;99.90;;;;;;5026683;28;20259;-77
2022/12/23 08:18:35;;;;;;;52.83;19.95;;;8.20;99.90;;;;;;5032827;28;20176;-78
2022/12/23 08:21:04;;;;;;;50.67;20.67;;;8.20;99.90;;;;;;5028308;28;20188;-79
2022/12/23 08:23:30;;;;;;;51.40;21.35;;;8.20;99.90;;;;;;5027739;28;20203;-78
2022/12/23 08:26:07;;;;;;;45.75;19.98;;;8.20;99.90;;;;;;5031385;28;20651;-78
2022/12/23 08:28:34;;;;;;;49.80;20.85;;;8.30;99.90;;;;;;5035399;28;20218;-78
2022/12/23 08:31:27;;;;;;;45.05;20.10;;;8.30;99.90;;;;;;5048956;28;20188;-79
2022/12/23 08:33:55;;;;;;;44.35;18.90;;;8.30;99.90;;;;;;5029934;28;20184;-78
2022/12/23 08:36:31;;;;;;;49.97;19.73;;;8.30;99.90;;;;;;5032699;28;20187;-77
2022/12/23 08:38:59;;;;;;;50.45;20.77;;;8.30;99.90;;;;;;5034903;28;20179;-83
2022/12/23 08:41:31;;;;;;;49.03;22.20;;;8.30;99.90;;;;;;5049564;28;20176;-78
2022/12/23 08:43:57;;;;;;;49.55;21.42;;;8.40;99.90;;;;;;5033541;28;20551;-79
2022/12/23 08:46:23;;;;;;;51.30;22.08;;;8.40;99.90;;;;;;5031471;28;20194;-77
2022/12/23 08:48:50;;;;;;;51.90;22.45;;;8.40;99.90;;;;;;5032540;28;20278;-79
2022/12/23 08:51:17;;;;;;;51.13;22.35;;;8.40;99.90;;;;;;5031183;28;20179;-78
2022/12/23 08:53:43;;;;;;;53.28;22.42;;;8.40;99.90;;;;;;5014714;28;20234;-77
2022/12/23 08:56:15;;;;;;;51.17;22.30;;;8.40;99.90;;;;;;5033993;28;20184;-78
2022/12/23 08:58:44;;;;;;;49.97;21.65;;;8.40;99.90;;;;;;5039439;28;20242;-82
2022/12/23 09:01:12;;;;;;;49.55;22.40;;;8.40;99.90;;;;;;5033427;28;20219;-77
2022/12/23 09:03:39;;;;;;;46.95;22.40;;;8.50;99.90;;;;;;5034737;28;20182;-79
2022/12/23 09:06:10;;;;;;;46.53;22.33;;;8.50;99.90;;;;;;5033136;28;20198;-78
2022/12/23 09:08:36;;;;;;;48.65;21.33;;;8.50;99.90;;;;;;5033478;28;20254;-78
2022/12/23 09:11:02;;;;;;;48.22;22.00;;;8.60;99.90;;;;;;5049148;28;20619;-81
2022/12/23 09:13:27;;;;;;;47.90;22.33;;;8.60;99.90;;;;;;5030033;28;20188;-78
2022/12/23 09:15:53;;;;;;;47.42;20.88;;;8.60;99.90;;;;;;5031234;28;20176;-80
2022/12/23 09:18:19;;;;;;;43.25;19.73;;;8.70;99.90;;;;;;5045245;28;20217;-79
2022/12/23 09:20:46;;;;;;;42.63;19.67;;;8.70;99.90;;;;;;5037511;28;20228;-80
2022/12/23 09:23:11;;;;;;;38.83;18.35;;;8.80;99.90;;;;;;5049744;28;20188;-78
2022/12/23 09:25:37;;;;;;;46.40;18.80;;;8.80;99.90;;;;;;5034350;28;20267;-82
2022/12/23 09:28:05;;;;;;;38.00;18.13;;;8.90;99.90;;;;;;5050450;28;20188;-77
2022/12/23 09:30:30;;;;;;;42.42;18.50;;;8.90;99.90;;;;;;5030581;28;20201;-77
2022/12/23 09:32:56;;;;;;;41.88;18.55;;;9.00;99.90;;;;;;5014426;28;20662;-78
2022/12/23 09:35:22;;;;;;;37.88;18.52;;;9.00;99.90;;;;;;5024090;28;20175;-78
2022/12/23 09:37:48;;;;;;;36.13;18.15;;;9.10;99.90;;;;;;5033797;28;20263;-78
2022/12/23 09:40:18;;;;;;;39.75;18.08;;;9.10;99.90;;;;;;5034499;28;20180;-78
2022/12/23 09:42:56;;;;;;;37.65;18.17;;;9.20;99.90;;;;;;5032663;28;20595;-80
2022/12/23 09:45:25;;;;;;;37.55;18.17;;;9.20;99.90;;;;;;5032031;28;20574;-81
2022/12/23 09:47:54;;;;;;;36.38;17.98;;;9.20;99.90;;;;;;5029368;28;20620;-77
2022/12/23 09:50:25;;;;;;;37.03;17.85;;;9.20;99.90;;;;;;5033453;28;20213;-80
2022/12/23 09:52:57;;;;;;;42.13;17.27;;;9.30;99.90;;;;;;5033771;28;20182;-79
2022/12/23 09:55:46;;;;;;;40.42;19.25;;;9.40;99.90;;;;;;5035565;28;20224;-76
2022/12/23 09:58:27;;;;;;;40.75;18.73;;;9.50;99.90;;;;;;5017602;28;20208;-77
2022/12/23 10:01:17;;;;;;;40.22;18.52;;;9.70;99.90;;;;;;5030130;28;20180;-77
2022/12/23 10:03:46;;;;;;;35.28;17.02;;;9.80;99.90;;;;;;5032248;28;20180;-81
2022/12/23 10:06:24;;;;;;;41.00;18.25;;;9.90;99.90;;;;;;5030086;28;20617;-78
2022/12/23 10:08:55;;;;;;;39.58;18.23;;;10.00;99.90;;;;;;5029725;28;20231;-78
2022/12/23 10:11:25;;;;;;;33.22;17.77;;;10.10;99.90;;;;;;5031060;28;20231;-76
2022/12/23 10:14:07;;;;;;;37.60;18.42;;;10.10;99.90;;;;;;5030208;28;20180;-77
2022/12/23 10:16:39;;;;;;;37.45;18.40;;;10.10;99.90;;;;;;5030867;28;20179;-80
2022/12/23 10:19:19;;;;;;;32.45;18.02;;;10.10;99.90;;;;;;5031465;28;20183;-77
2022/12/23 10:21:51;;;;;;;37.90;17.42;;;10.10;99.90;;;;;;5024862;28;20183;-78
2022/12/23 10:24:21;;;;;;;34.58;17.48;;;10.20;99.90;;;;;;5018845;28;20271;-77
2022/12/23 10:26:53;;;;;;;32.10;17.65;;;10.10;99.90;;;;;;5033049;28;20538;-77
2022/12/23 10:29:24;;;;;;;37.00;17.70;;;10.00;99.90;;;;;;5031726;28;20211;-77
2022/12/23 10:32:20;;;;;;;33.65;16.75;;;10.00;99.90;;;;;;5020893;28;20660;-77
2022/12/23 10:35:04;;;;;;;30.48;17.15;;;9.90;99.90;;;;;;5036404;28;20609;-76
2022/12/23 10:37:38;;;;;;;31.60;16.90;;;9.70;99.90;;;;;;5017858;28;20261;-77
2022/12/23 10:40:15;;;;;;;30.00;16.13;;;9.60;99.90;;;;;;5029491;28;20183;-76
2022/12/23 10:43:19;;;;;;;37.42;17.85;;;9.50;99.90;;;;;;5023703;28;20180;-76
2022/12/23 10:46:09;;;;;;;35.17;18.55;;;9.40;99.90;;;;;;5020328;28;20188;-82
2022/12/23 10:49:10;;;;;;;31.35;17.08;;;9.40;99.90;;;;;;5040047;28;20214;-78
2022/12/23 10:51:39;;;;;;;31.00;16.40;;;9.30;99.90;;;;;;5025662;28;20201;-77
2022/12/23 10:54:09;;;;;;;28.10;16.13;;;9.20;99.90;;;;;;5024286;28;20215;-78
2022/12/23 10:56:36;;;;;;;27.45;15.60;;;9.20;99.90;;;;;;5033412;28;20238;-77
2022/12/23 10:59:02;;;;;;;33.45;17.80;;;9.10;99.90;;;;;;5034545;28;20186;-79
2022/12/23 11:01:29;;;;;;;33.25;18.10;;;9.00;99.90;;;;;;5032907;28;20231;-77
2022/12/23 11:04:18;;;;;;;34.85;17.58;;;9.00;99.90;;;;;;5050728;28;20262;-78
2022/12/23 11:06:49;;;;;;;38.08;18.30;;;9.00;99.90;;;;;;5041980;28;20206;-78
2022/12/23 11:09:20;;;;;;;32.80;17.63;;;8.90;99.90;;;;;;5034094;28;20208;-77
2022/12/23 11:12:07;;;;;;;37.97;19.50;;;8.90;99.90;;;;;;5068233;28;20694;-78
2022/12/23 11:14:41;;;;;;;31.35;17.30;;;8.90;99.90;;;;;;5030013;28;20187;-77
2022/12/23 11:17:20;;;;;;;33.15;17.85;;;8.90;99.90;;;;;;5025410;28;20229;-78
2022/12/23 11:19:46;;;;;;;32.15;17.23;;;8.90;99.90;;;;;;5028663;28;20234;-77
2022/12/23 11:22:24;;;;;;;34.67;18.55;;;8.80;99.90;;;;;;5033728;28;20184;-76
2022/12/23 11:24:50;;;;;;;38.78;19.73;;;8.80;99.90;;;;;;5037606;28;20194;-77
2022/12/23 11:27:17;;;;;;;39.85;19.58;;;8.70;99.90;;;;;;5063961;28;20574;-77
2022/12/23 11:29:49;;;;;;;38.70;20.17;;;8.70;99.90;;;;;;5029925;28;20212;-76
2022/12/23 11:32:27;;;;;;;34.13;18.27;;;8.70;99.90;;;;;;5035137;28;20206;-79
2022/12/23 11:34:54;;;;;;;32.83;17.17;;;8.70;99.90;;;;;;5034624;28;20180;-78
2022/12/23 11:37:49;;;;;;;38.92;18.02;;;8.60;99.90;;;;;;5031488;28;20600;-77
2022/12/23 11:40:32;;;;;;;41.10;19.38;;;8.60;99.90;;;;;;5016193;28;20666;-77
2022/12/23 11:43:04;;;;;;;40.38;19.15;;;8.60;99.90;;;;;;5026673;28;20190;-79
2022/12/23 11:45:34;;;;;;;39.33;18.27;;;8.50;99.90;;;;;;5046641;28;20172;-77
2022/12/23 11:48:03;;;;;;;43.67;19.45;;;8.50;99.90;;;;;;5050461;28;20160;-77
2022/12/23 11:50:33;;;;;;;35.22;17.30;;;8.50;99.90;;;;;;5034033;28;20291;-77
2022/12/23 11:53:21;;;;;;;35.50;17.70;;;8.50;99.90;;;;;;5031040;28;20184;-76
2022/12/23 11:56:04;;;;;;;35.80;16.73;;;8.50;99.90;;;;;;5018854;28;20247;-76
2022/12/23 11:58:44;;;;;;;41.95;18.40;;;8.40;99.90;;;;;;5015423;28;20165;-81
2022/12/23 12:01:16;;;;;;;27.45;15.73;;;8.40;99.90;;;;;;5027635;28;20188;-76
2022/12/23 12:03:48;;;;;;;29.83;15.25;;;8.40;99.90;;;;;;5022567;28;20202;-83
2022/12/23 12:06:18;;;;;;;28.70;15.30;;;8.40;99.90;;;;;;5029613;28;20262;-77
2022/12/23 12:08:52;;;;;;;29.70;15.57;;;8.40;99.90;;;;;;5020199;28;20273;-75
2022/12/23 12:11:23;;;;;;;29.67;15.57;;;8.40;99.90;;;;;;5028562;28;20188;-75
2022/12/23 12:14:00;;;;;;;31.17;16.55;;;8.40;99.90;;;;;;5065225;28;20183;-76
2022/12/23 12:17:06;;;;;;;33.40;16.30;;;8.40;99.90;;;;;;5034432;28;20236;-76
2022/12/23 12:19:38;;;;;;;33.03;17.20;;;8.30;99.90;;;;;;4990694;28;20184;-76
2022/12/23 12:22:13;;;;;;;30.15;16.65;;;8.30;99.90;;;;;;5031779;28;20291;-76
2022/12/23 12:24:43;;;;;;;29.85;16.35;;;8.30;99.90;;;;;;5029499;28;20175;-76
2022/12/23 12:27:10;;;;;;;28.60;16.23;;;8.30;99.90;;;;;;5020804;28;20188;-80
2022/12/23 12:29:54;;;;;;;36.00;17.75;;;8.30;99.90;;;;;;5023643;28;20214;-77
2022/12/23 12:32:44;;;;;;;30.80;16.67;;;8.30;99.90;;;;;;5029699;28;20172;-79
2022/12/23 12:35:42;;;;;;;29.88;16.58;;;8.30;99.90;;;;;;5051742;28;20267;-78
2022/12/23 12:38:25;;;;;;;35.83;17.70;;;8.30;99.90;;;;;;5014509;28;20602;-77
2022/12/23 12:41:06;;;;;;;39.58;18.55;;;8.30;99.90;;;;;;5044449;28;20258;-78
2022/12/23 12:43:39;;;;;;;45.63;19.35;;;8.30;99.90;;;;;;5034423;28;20290;-79
2022/12/23 12:46:31;;;;;;;41.13;19.67;;;8.30;99.90;;;;;;5032774;28;20592;-78
2022/12/23 12:49:23;;;;;;;41.28;20.27;;;8.30;99.90;;;;;;5033254;28;20206;-78
2022/12/23 12:52:12;;;;;;;43.50;20.33;;;8.30;99.90;;;;;;5030610;28;20222;-81
2022/12/23 12:54:49;;;;;;;41.47;20.20;;;8.30;99.90;;;;;;5026185;28;20353;-78
2022/12/23 12:57:18;;;;;;;45.45;21.23;;;8.30;99.90;;;;;;5016914;28;20230;-77
2022/12/23 12:59:48;;;;;;;43.83;20.77;;;8.30;99.90;;;;;;5030079;28;20184;-77
2022/12/23 13:02:20;;;;;;;43.97;21.05;;;8.30;99.90;;;;;;5049989;28;20187;-78
2022/12/23 13:05:18;;;;;;;47.17;21.65;;;8.30;99.90;;;;;;5029881;28;20187;-78
2022/12/23 13:08:12;;;;;;;43.05;21.23;;;8.30;99.90;;;;;;5029458;28;20636;-77
2022/12/23 13:11:04;;;;;;;47.70;21.75;;;8.40;99.90;;;;;;5046296;28;20203;-77
2022/12/23 13:13:51;;;;;;;49.15;23.67;;;8.30;99.90;;;;;;5025374;28;20210;-77
2022/12/23 13:16:46;;;;;;;47.05;21.65;;;8.40;99.90;;;;;;5032094;28;20680;-77
2022/12/23 13:19:37;;;;;;;46.58;21.98;;;8.40;99.90;;;;;;5030709;28;20187;-77
2022/12/23 13:22:12;;;;;;;44.33;20.30;;;8.40;99.90;;;;;;5029955;28;20180;-78
2022/12/23 13:24:56;;;;;;;48.35;21.35;;;8.50;99.90;;;;;;5056963;28;20167;-77
2022/12/23 13:27:34;;;;;;;45.97;21.30;;;8.50;99.90;;;;;;5029434;28;20187;-77
2022/12/23 13:29:59;;;;;;;46.92;22.10;;;8.50;99.90;;;;;;5028405;28;20221;-77